createdAt,value
2018-06-03T00:00:17.092Z,17.28
2018-06-03T00:01:17.025Z,17.30
2018-06-03T00:02:16.955Z,17.26
2018-06-03T00:03:16.884Z,17.28
2018-06-03T00:04:16.817Z,17.40
2018-06-03T00:05:37.728Z,17.34
2018-06-03T00:06:16.671Z,17.34
2018-06-03T00:07:16.609Z,17.43
2018-06-03T00:08:16.528Z,17.33
2018-06-03T00:09:16.453Z,17.40
2018-06-03T00:10:16.388Z,17.28
2018-06-03T00:11:37.302Z,17.33
2018-06-03T00:12:16.240Z,17.34
2018-06-03T00:13:16.180Z,17.26
2018-06-03T00:14:16.107Z,17.28
2018-06-03T00:15:16.045Z,17.36
2018-06-03T00:16:15.995Z,17.31
2018-06-03T00:17:36.872Z,17.37
2018-06-03T00:18:15.823Z,17.23
2018-06-03T00:19:15.750Z,17.18
2018-06-03T00:20:15.677Z,17.22
2018-06-03T00:21:15.613Z,17.37
2018-06-03T00:22:15.540Z,17.19
2018-06-03T00:23:36.454Z,17.14
2018-06-03T00:24:15.391Z,17.31
2018-06-03T00:25:15.327Z,17.28
2018-06-03T00:26:15.302Z,17.23
2018-06-03T00:27:15.186Z,17.15
2018-06-03T00:28:15.119Z,17.31
2018-06-03T00:29:36.034Z,17.28
2018-06-03T00:30:14.973Z,17.16
2018-06-03T00:31:14.898Z,17.16
2018-06-03T00:32:14.840Z,17.26
2018-06-03T00:33:14.756Z,17.23
2018-06-03T00:34:14.696Z,17.28
2018-06-03T00:35:35.601Z,17.28
2018-06-03T00:36:14.555Z,17.22
2018-06-03T00:37:14.480Z,17.28
2018-06-03T00:38:14.401Z,17.16
2018-06-03T00:39:14.348Z,17.31
2018-06-03T00:40:14.277Z,17.11
2018-06-03T00:41:35.194Z,17.18
2018-06-03T00:42:14.119Z,17.28
2018-06-03T00:43:14.056Z,17.36
2018-06-03T00:44:13.985Z,17.30
2018-06-03T00:45:13.911Z,17.26
2018-06-03T00:46:13.834Z,17.33
2018-06-03T00:47:34.790Z,17.30
2018-06-03T00:48:13.702Z,17.16
2018-06-03T00:49:13.623Z,17.21
2018-06-03T00:50:13.560Z,17.26
2018-06-03T00:51:13.485Z,17.31
2018-06-03T00:52:13.410Z,17.23
2018-06-03T00:53:34.324Z,17.23
2018-06-03T00:54:13.267Z,17.28
2018-06-03T00:55:13.199Z,17.16
2018-06-03T00:56:13.129Z,17.16
2018-06-03T00:57:13.057Z,17.15
2018-06-03T00:58:12.983Z,17.19
2018-06-03T00:59:33.900Z,17.15
2018-06-03T01:00:12.844Z,17.11
2018-06-03T01:01:12.775Z,17.06
2018-06-03T01:02:12.720Z,17.16
2018-06-03T01:03:12.639Z,17.21
2018-06-03T01:04:12.564Z,17.18
2018-06-03T01:05:33.479Z,17.16
2018-06-03T01:06:12.417Z,17.16
2018-06-03T01:07:12.347Z,17.12
2018-06-03T01:08:12.287Z,17.01
2018-06-03T01:09:12.205Z,17.18
2018-06-03T01:10:12.139Z,17.12
2018-06-03T01:11:33.050Z,17.16
2018-06-03T01:12:11.997Z,17.19
2018-06-03T01:13:11.928Z,17.15
2018-06-03T01:14:11.849Z,17.18
2018-06-03T01:15:11.777Z,17.16
2018-06-03T01:16:11.717Z,17.19
2018-06-03T01:17:32.621Z,17.16
2018-06-03T01:18:11.565Z,17.04
2018-06-03T01:19:11.491Z,17.04
2018-06-03T01:20:11.440Z,17.03
2018-06-03T01:21:11.358Z,17.04
2018-06-03T01:22:11.288Z,17.18
2018-06-03T01:23:32.206Z,17.14
2018-06-03T01:24:11.141Z,17.21
2018-06-03T01:25:11.081Z,17.07
2018-06-03T01:26:11.000Z,17.14
2018-06-03T01:27:10.929Z,17.01
2018-06-03T01:28:10.856Z,17.00
2018-06-03T01:29:31.769Z,17.03
2018-06-03T01:30:10.735Z,17.00
2018-06-03T01:31:10.641Z,17.03
2018-06-03T01:32:10.575Z,17.08
2018-06-03T01:33:10.501Z,17.08
2018-06-03T01:34:10.432Z,17.06
2018-06-03T01:35:31.351Z,17.04
2018-06-03T01:36:10.315Z,17.01
2018-06-03T01:37:10.220Z,17.01
2018-06-03T01:38:10.152Z,17.01
2018-06-03T01:39:10.084Z,16.98
2018-06-03T01:40:10.017Z,17.01
2018-06-03T01:41:30.914Z,17.07
2018-06-03T01:42:09.877Z,17.06
2018-06-03T01:43:09.795Z,17.01
2018-06-03T01:44:09.719Z,17.03
2018-06-03T01:45:09.654Z,17.03
2018-06-03T01:46:09.589Z,17.03
2018-06-03T01:47:30.522Z,17.04
2018-06-03T01:48:09.436Z,17.04
2018-06-03T01:49:09.364Z,17.08
2018-06-03T01:50:09.293Z,17.08
2018-06-03T01:51:09.223Z,17.04
2018-06-03T01:52:09.157Z,17.08
2018-06-03T01:53:30.072Z,17.08
2018-06-03T01:54:09.013Z,17.03
2018-06-03T01:55:08.947Z,17.00
2018-06-03T01:56:08.875Z,17.04
2018-06-03T01:57:08.794Z,17.07
2018-06-03T01:58:08.735Z,17.04
2018-06-03T01:59:29.641Z,17.01
2018-06-03T02:00:08.583Z,17.03
2018-06-03T02:01:08.512Z,17.03
2018-06-03T02:02:08.453Z,17.01
2018-06-03T02:03:08.379Z,17.06
2018-06-03T02:04:08.308Z,17.07
2018-06-03T02:05:29.214Z,17.01
2018-06-03T02:06:08.162Z,16.97
2018-06-03T02:07:08.093Z,17.03
2018-06-03T02:08:08.026Z,16.98
2018-06-03T02:09:07.943Z,17.07
2018-06-03T02:10:07.879Z,17.03
2018-06-03T02:11:28.792Z,17.06
2018-06-03T02:12:07.736Z,17.03
2018-06-03T02:13:07.668Z,17.16
2018-06-03T02:14:07.593Z,17.06
2018-06-03T02:15:07.522Z,17.06
2018-06-03T02:16:07.450Z,17.06
2018-06-03T02:17:28.367Z,16.98
2018-06-03T02:18:07.310Z,17.06
2018-06-03T02:19:07.236Z,17.07
2018-06-03T02:20:07.170Z,17.07
2018-06-03T02:21:07.091Z,17.07
2018-06-03T02:22:07.019Z,17.12
2018-06-03T02:23:27.943Z,17.15
2018-06-03T02:24:06.879Z,17.06
2018-06-03T02:25:06.821Z,17.14
2018-06-03T02:26:06.738Z,17.15
2018-06-03T02:27:06.669Z,17.16
2018-06-03T02:28:06.604Z,17.16
2018-06-03T02:29:27.517Z,17.16
2018-06-03T02:30:06.455Z,17.18
2018-06-03T02:31:06.397Z,17.14
2018-06-03T02:32:06.321Z,17.16
2018-06-03T02:33:06.242Z,17.11
2018-06-03T02:34:06.169Z,17.12
2018-06-03T02:35:27.094Z,17.18
2018-06-03T02:36:06.040Z,17.26
2018-06-03T02:37:05.965Z,17.28
2018-06-03T02:38:05.922Z,17.08
2018-06-03T02:39:05.817Z,17.16
2018-06-03T02:40:05.755Z,17.11
2018-06-03T02:41:26.681Z,17.16
2018-06-03T02:42:05.607Z,17.15
2018-06-03T02:43:05.539Z,17.03
2018-06-03T02:44:05.479Z,17.11
2018-06-03T02:45:05.400Z,17.03
2018-06-03T02:46:05.323Z,17.04
2018-06-03T02:47:26.240Z,17.07
2018-06-03T02:48:05.182Z,17.03
2018-06-03T02:49:05.110Z,17.06
2018-06-03T02:50:05.037Z,17.03
2018-06-03T02:51:04.967Z,17.06
2018-06-03T02:52:04.897Z,17.07
2018-06-03T02:53:25.813Z,17.06
2018-06-03T02:54:04.751Z,17.08
2018-06-03T02:55:04.683Z,17.18
2018-06-03T02:56:04.623Z,17.16
2018-06-03T02:57:04.553Z,17.07
2018-06-03T02:58:04.472Z,17.06
2018-06-03T02:59:25.384Z,17.06
2018-06-03T03:00:04.331Z,17.04
2018-06-03T03:01:04.258Z,17.01
2018-06-03T03:02:04.221Z,17.04
2018-06-03T03:03:04.124Z,17.18
2018-06-03T03:04:04.050Z,17.19
2018-06-03T03:05:24.958Z,17.14
2018-06-03T03:06:03.909Z,17.26
2018-06-03T03:07:03.852Z,17.25
2018-06-03T03:08:03.764Z,17.16
2018-06-03T03:09:03.694Z,17.22
2018-06-03T03:10:03.623Z,17.18
2018-06-03T03:11:24.555Z,17.11
2018-06-03T03:12:03.479Z,17.21
2018-06-03T03:13:03.416Z,17.18
2018-06-03T03:14:03.346Z,17.19
2018-06-03T03:15:03.261Z,17.03
2018-06-03T03:16:03.196Z,17.07
2018-06-03T03:17:24.115Z,17.18
2018-06-03T03:18:03.058Z,17.11
2018-06-03T03:19:03.063Z,17.18
2018-06-03T03:20:02.918Z,17.06
2018-06-03T03:21:02.846Z,17.12
2018-06-03T03:22:02.768Z,17.04
2018-06-03T03:23:23.686Z,17.04
2018-06-03T03:24:02.627Z,17.01
2018-06-03T03:25:02.552Z,16.97
2018-06-03T03:26:02.491Z,16.93
2018-06-03T03:27:02.417Z,16.93
2018-06-03T03:28:02.343Z,16.86
2018-06-03T03:29:23.275Z,16.94
2018-06-03T03:30:02.204Z,16.88
2018-06-03T03:31:02.146Z,17.04
2018-06-03T03:32:02.076Z,16.93
2018-06-03T03:33:01.991Z,16.91
2018-06-03T03:34:01.915Z,16.93
2018-06-03T03:35:22.836Z,16.93
2018-06-03T03:36:01.788Z,16.94
2018-06-03T03:37:01.704Z,16.93
2018-06-03T03:38:01.629Z,17.03
2018-06-03T03:39:01.566Z,17.00
2018-06-03T03:40:01.494Z,17.04
2018-06-03T03:41:22.404Z,17.01
2018-06-03T03:42:01.378Z,16.97
2018-06-03T03:43:01.281Z,16.88
2018-06-03T03:44:01.233Z,16.89
2018-06-03T03:45:01.133Z,16.94
2018-06-03T03:46:01.065Z,16.86
2018-06-03T03:47:21.979Z,16.78
2018-06-03T03:48:00.931Z,16.73
2018-06-03T03:49:00.853Z,16.73
2018-06-03T03:50:00.783Z,16.70
2018-06-03T03:51:00.703Z,16.75
2018-06-03T03:52:00.652Z,16.68
2018-06-03T03:53:21.557Z,16.60
2018-06-03T03:54:00.512Z,16.58
2018-06-03T03:55:00.429Z,16.58
2018-06-03T03:56:00.368Z,16.56
2018-06-03T03:57:00.283Z,16.52
2018-06-03T03:58:00.234Z,16.42
2018-06-03T03:59:21.128Z,16.43
2018-06-03T04:00:00.074Z,16.42
2018-06-03T04:01:00.002Z,16.41
2018-06-03T04:01:59.956Z,16.39
2018-06-03T04:02:59.864Z,16.30
2018-06-03T04:03:59.806Z,16.42
2018-06-03T04:05:20.712Z,16.41
2018-06-03T04:05:59.644Z,16.41
2018-06-03T04:06:59.567Z,16.41
2018-06-03T04:07:59.513Z,16.41
2018-06-03T04:08:59.427Z,16.33
2018-06-03T04:09:59.372Z,16.33
2018-06-03T04:11:20.273Z,16.12
2018-06-03T04:11:59.219Z,16.17
2018-06-03T04:12:59.151Z,16.05
2018-06-03T04:13:59.086Z,16.11
2018-06-03T04:14:59.015Z,16.11
2018-06-03T04:15:58.931Z,16.12
2018-06-03T04:17:19.843Z,16.09
2018-06-03T04:17:58.792Z,16.09
2018-06-03T04:18:58.715Z,16.12
2018-06-03T04:19:58.652Z,16.09
2018-06-03T04:20:58.576Z,16.14
2018-06-03T04:21:58.506Z,16.14
2018-06-03T04:23:19.486Z,16.12
2018-06-03T04:23:58.368Z,16.09
2018-06-03T04:24:58.290Z,16.15
2018-06-03T04:25:58.214Z,16.04
2018-06-03T04:26:58.149Z,16.21
2018-06-03T04:27:58.089Z,16.14
2018-06-03T04:29:18.994Z,16.27
2018-06-03T04:29:57.940Z,16.24
2018-06-03T04:30:57.862Z,16.21
2018-06-03T04:31:57.789Z,16.30
2018-06-03T04:32:57.723Z,16.33
2018-06-03T04:33:57.649Z,16.35
2018-06-03T04:35:18.567Z,16.28
2018-06-03T04:35:57.511Z,16.30
2018-06-03T04:36:57.434Z,16.31
2018-06-03T04:37:57.368Z,16.27
2018-06-03T04:38:57.289Z,16.25
2018-06-03T04:39:57.218Z,16.20
2018-06-03T04:41:18.159Z,16.34
2018-06-03T04:41:57.071Z,16.27
2018-06-03T04:42:57.011Z,16.27
2018-06-03T04:43:56.946Z,16.31
2018-06-03T04:44:56.860Z,16.31
2018-06-03T04:45:56.788Z,16.33
2018-06-03T04:47:17.711Z,16.41
2018-06-03T04:47:56.653Z,16.28
2018-06-03T04:48:56.575Z,16.34
2018-06-03T04:49:56.517Z,16.23
2018-06-03T04:50:56.433Z,16.23
2018-06-03T04:51:56.366Z,16.23
2018-06-03T04:53:17.285Z,16.17
2018-06-03T04:53:56.226Z,16.20
2018-06-03T04:54:56.154Z,16.23
2018-06-03T04:55:56.080Z,16.33
2018-06-03T04:56:56.006Z,16.35
2018-06-03T04:57:55.945Z,16.34
2018-06-03T04:59:16.847Z,16.33
2018-06-03T04:59:55.808Z,16.34
2018-06-03T05:00:55.731Z,16.30
2018-06-03T05:01:55.704Z,16.27
2018-06-03T05:02:55.589Z,16.34
2018-06-03T05:03:55.560Z,16.38
2018-06-03T05:05:16.432Z,16.38
2018-06-03T05:05:55.363Z,16.39
2018-06-03T05:06:55.335Z,16.35
2018-06-03T05:07:55.226Z,16.41
2018-06-03T05:08:55.154Z,16.33
2018-06-03T05:09:55.146Z,16.34
2018-06-03T05:11:15.996Z,16.28
2018-06-03T05:11:54.936Z,16.27
2018-06-03T05:12:54.865Z,16.34
2018-06-03T05:13:54.799Z,16.30
2018-06-03T05:14:54.722Z,16.34
2018-06-03T05:15:54.652Z,16.39
2018-06-03T05:17:15.571Z,16.46
2018-06-03T05:17:54.513Z,16.43
2018-06-03T05:18:54.437Z,16.57
2018-06-03T05:19:54.371Z,16.63
2018-06-03T05:20:54.301Z,16.61
2018-06-03T05:21:54.308Z,16.63
2018-06-03T05:23:15.152Z,16.70
2018-06-03T05:23:54.087Z,16.63
2018-06-03T05:24:54.012Z,16.61
2018-06-03T05:25:53.939Z,16.68
2018-06-03T05:26:53.877Z,16.71
2018-06-03T05:27:53.799Z,16.67
2018-06-03T05:29:14.712Z,16.76
2018-06-03T05:29:53.658Z,16.78
2018-06-03T05:30:53.588Z,16.78
2018-06-03T05:31:53.513Z,16.76
2018-06-03T05:32:53.440Z,16.86
2018-06-03T05:33:53.375Z,16.82
2018-06-03T05:35:14.286Z,16.82
2018-06-03T05:35:53.232Z,16.88
2018-06-03T05:36:53.166Z,16.94
2018-06-03T05:37:53.102Z,16.96
2018-06-03T05:38:53.022Z,16.96
2018-06-03T05:39:52.951Z,16.91
2018-06-03T05:41:13.858Z,16.94
2018-06-03T05:41:52.802Z,17.04
2018-06-03T05:42:52.734Z,17.00
2018-06-03T05:43:52.663Z,17.14
2018-06-03T05:44:52.589Z,17.08
2018-06-03T05:45:52.530Z,17.31
2018-06-03T05:47:13.437Z,17.25
2018-06-03T05:47:52.380Z,17.30
2018-06-03T05:48:52.301Z,17.28
2018-06-03T05:49:52.248Z,17.31
2018-06-03T05:50:52.166Z,17.23
2018-06-03T05:51:52.093Z,17.22
2018-06-03T05:53:13.017Z,17.33
2018-06-03T05:53:51.950Z,17.23
2018-06-03T05:54:51.884Z,17.23
2018-06-03T05:55:51.817Z,17.38
2018-06-03T05:56:51.747Z,17.33
2018-06-03T05:57:51.672Z,17.43
2018-06-03T05:59:12.587Z,17.46
2018-06-03T05:59:51.532Z,17.55
2018-06-03T06:00:51.458Z,17.64
2018-06-03T06:01:51.388Z,17.62
2018-06-03T06:02:51.316Z,17.66
2018-06-03T06:03:51.245Z,17.68
2018-06-03T06:05:12.158Z,17.62
2018-06-03T06:05:51.115Z,17.74
2018-06-03T06:06:51.029Z,17.78
2018-06-03T06:07:50.965Z,17.77
2018-06-03T06:08:50.892Z,17.81
2018-06-03T06:09:50.824Z,17.92
2018-06-03T06:11:11.742Z,17.92
2018-06-03T06:11:50.686Z,17.86
2018-06-03T06:12:50.618Z,17.92
2018-06-03T06:13:50.558Z,17.87
2018-06-03T06:14:50.466Z,18.00
2018-06-03T06:15:50.396Z,18.03
2018-06-03T06:17:11.319Z,18.17
2018-06-03T06:17:50.255Z,18.12
2018-06-03T06:18:50.190Z,18.08
2018-06-03T06:19:50.118Z,18.05
2018-06-03T06:20:50.039Z,18.00
2018-06-03T06:21:49.981Z,18.08
2018-06-03T06:23:10.892Z,18.14
2018-06-03T06:23:49.837Z,18.18
2018-06-03T06:24:49.764Z,18.20
2018-06-03T06:25:49.698Z,18.27
2018-06-03T06:26:49.626Z,18.27
2018-06-03T06:27:49.555Z,18.35
2018-06-03T06:29:10.467Z,18.26
2018-06-03T06:29:49.413Z,18.39
2018-06-03T06:30:49.339Z,18.36
2018-06-03T06:31:49.273Z,18.35
2018-06-03T06:32:49.201Z,18.37
2018-06-03T06:33:49.130Z,18.36
2018-06-03T06:35:10.043Z,18.36
2018-06-03T06:35:48.998Z,18.45
2018-06-03T06:36:48.918Z,18.42
2018-06-03T06:37:48.858Z,18.50
2018-06-03T06:38:48.777Z,18.51
2018-06-03T06:39:48.711Z,18.52
2018-06-03T06:41:09.629Z,18.69
2018-06-03T06:41:48.573Z,18.75
2018-06-03T06:42:48.506Z,18.78
2018-06-03T06:43:48.430Z,18.91
2018-06-03T06:44:48.361Z,18.98
2018-06-03T06:45:48.295Z,18.92
2018-06-03T06:47:09.211Z,18.94
2018-06-03T06:47:48.151Z,18.98
2018-06-03T06:48:48.076Z,18.95
2018-06-03T06:49:48.021Z,18.87
2018-06-03T06:50:47.983Z,18.82
2018-06-03T06:51:47.871Z,18.73
2018-06-03T06:53:08.795Z,18.80
2018-06-03T06:53:47.751Z,18.92
2018-06-03T06:54:47.664Z,18.95
2018-06-03T06:55:47.598Z,19.06
2018-06-03T06:56:47.525Z,19.13
2018-06-03T06:57:47.458Z,19.18
2018-06-03T06:59:08.380Z,19.33
2018-06-03T06:59:47.317Z,19.11
2018-06-03T07:00:47.269Z,19.13
2018-06-03T07:01:47.178Z,19.14
2018-06-03T07:02:47.111Z,19.14
2018-06-03T07:03:47.042Z,19.22
2018-06-03T07:05:07.955Z,19.25
2018-06-03T07:05:46.905Z,19.39
2018-06-03T07:06:46.861Z,19.40
2018-06-03T07:07:46.761Z,19.44
2018-06-03T07:08:46.693Z,19.46
2018-06-03T07:09:46.629Z,19.18
2018-06-03T07:11:07.544Z,19.07
2018-06-03T07:11:46.485Z,19.04
2018-06-03T07:12:46.418Z,19.06
2018-06-03T07:13:46.386Z,19.14
2018-06-03T07:14:46.280Z,19.29
2018-06-03T07:15:46.217Z,19.32
2018-06-03T07:17:07.121Z,19.41
2018-06-03T07:17:46.068Z,19.44
2018-06-03T07:18:45.994Z,19.46
2018-06-03T07:19:45.938Z,19.56
2018-06-03T07:20:45.911Z,19.68
2018-06-03T07:21:45.801Z,19.74
2018-06-03T07:23:06.735Z,19.86
2018-06-03T07:23:45.657Z,19.74
2018-06-03T07:24:45.598Z,19.81
2018-06-03T07:25:45.528Z,19.88
2018-06-03T07:26:45.445Z,19.87
2018-06-03T07:27:45.378Z,19.96
2018-06-03T07:29:06.302Z,20.01
2018-06-03T07:29:45.253Z,20.03
2018-06-03T07:30:45.169Z,20.14
2018-06-03T07:31:45.100Z,20.23
2018-06-03T07:32:45.033Z,20.16
2018-06-03T07:33:44.965Z,20.16
2018-06-03T07:35:05.898Z,19.92
2018-06-03T07:35:44.824Z,20.02
2018-06-03T07:36:44.757Z,19.88
2018-06-03T07:37:44.684Z,20.01
2018-06-03T07:38:44.617Z,20.08
2018-06-03T07:39:44.558Z,20.18
2018-06-03T07:41:05.524Z,20.24
2018-06-03T07:41:44.432Z,20.38
2018-06-03T07:42:44.341Z,20.50
2018-06-03T07:43:44.280Z,20.59
2018-06-03T07:44:44.222Z,20.67
2018-06-03T07:45:44.135Z,20.66
2018-06-03T07:47:05.092Z,20.47
2018-06-03T07:47:44.002Z,20.23
2018-06-03T07:48:43.935Z,20.24
2018-06-03T07:49:43.874Z,20.39
2018-06-03T07:50:43.816Z,20.54
2018-06-03T07:51:43.728Z,20.29
2018-06-03T07:53:04.648Z,20.42
2018-06-03T07:53:43.597Z,20.47
2018-06-03T07:54:43.522Z,20.43
2018-06-03T07:55:43.453Z,20.42
2018-06-03T07:56:43.388Z,20.52
2018-06-03T07:57:43.308Z,20.62
2018-06-03T07:59:04.228Z,20.72
2018-06-03T07:59:43.186Z,20.55
2018-06-03T08:00:43.125Z,20.51
2018-06-03T08:01:43.041Z,20.51
2018-06-03T08:02:42.975Z,20.67
2018-06-03T08:03:42.903Z,20.67
2018-06-03T08:05:03.814Z,20.70
2018-06-03T08:05:42.764Z,20.88
2018-06-03T08:06:42.694Z,21.01
2018-06-03T08:07:42.631Z,21.12
2018-06-03T08:08:42.555Z,21.25
2018-06-03T08:09:42.486Z,21.19
2018-06-03T08:11:03.407Z,21.09
2018-06-03T08:11:42.354Z,20.99
2018-06-03T08:12:42.285Z,20.98
2018-06-03T08:13:42.240Z,21.04
2018-06-03T08:14:42.154Z,21.14
2018-06-03T08:15:42.082Z,21.31
2018-06-03T08:17:02.997Z,21.42
2018-06-03T08:17:41.940Z,21.38
2018-06-03T08:18:41.879Z,21.28
2018-06-03T08:19:41.817Z,21.50
2018-06-03T08:20:41.740Z,21.58
2018-06-03T08:21:41.671Z,21.64
2018-06-03T08:23:02.595Z,21.77
2018-06-03T08:23:41.544Z,21.74
2018-06-03T08:24:41.472Z,21.82
2018-06-03T08:25:41.409Z,21.67
2018-06-03T08:26:41.333Z,21.69
2018-06-03T08:27:41.264Z,21.79
2018-06-03T08:29:02.182Z,21.80
2018-06-03T08:29:41.126Z,21.94
2018-06-03T08:30:41.054Z,22.03
2018-06-03T08:31:41.080Z,22.27
2018-06-03T08:32:40.926Z,22.25
2018-06-03T08:33:40.864Z,22.22
2018-06-03T08:35:01.784Z,22.21
2018-06-03T08:35:40.723Z,22.27
2018-06-03T08:36:40.653Z,22.18
2018-06-03T08:37:40.583Z,22.17
2018-06-03T08:38:40.518Z,22.17
2018-06-03T08:39:40.457Z,22.31
2018-06-03T08:41:01.370Z,22.35
2018-06-03T08:41:40.311Z,22.42
2018-06-03T08:42:40.248Z,22.49
2018-06-03T08:43:40.205Z,22.73
2018-06-03T08:44:40.129Z,22.82
2018-06-03T08:45:40.047Z,22.77
2018-06-03T08:47:00.967Z,22.73
2018-06-03T08:47:39.912Z,22.60
2018-06-03T08:48:39.846Z,22.49
2018-06-03T08:49:39.802Z,22.49
2018-06-03T08:50:39.720Z,22.61
2018-06-03T08:51:39.645Z,22.65
2018-06-03T08:53:00.566Z,22.45
2018-06-03T08:53:39.522Z,22.49
2018-06-03T08:54:39.451Z,22.57
2018-06-03T08:55:39.392Z,22.67
2018-06-03T08:56:39.314Z,22.83
2018-06-03T08:57:39.251Z,23.00
2018-06-03T08:59:00.171Z,23.05
2018-06-03T08:59:39.116Z,22.97
2018-06-03T09:00:39.052Z,22.76
2018-06-03T09:01:38.995Z,22.73
2018-06-03T09:02:38.937Z,22.57
2018-06-03T09:03:38.857Z,22.33
2018-06-03T09:04:59.775Z,22.33
2018-06-03T09:05:38.723Z,22.43
2018-06-03T09:06:38.661Z,22.37
2018-06-03T09:07:38.586Z,22.40
2018-06-03T09:08:38.522Z,22.39
2018-06-03T09:09:38.456Z,22.49
2018-06-03T09:10:59.376Z,22.61
2018-06-03T09:11:38.329Z,22.47
2018-06-03T09:12:38.251Z,22.57
2018-06-03T09:13:38.199Z,22.64
2018-06-03T09:14:38.128Z,22.67
2018-06-03T09:15:38.059Z,22.58
2018-06-03T09:16:58.973Z,22.55
2018-06-03T09:17:37.926Z,22.49
2018-06-03T09:18:37.855Z,22.45
2018-06-03T09:19:37.790Z,22.37
2018-06-03T09:20:37.719Z,22.35
2018-06-03T09:21:37.657Z,22.33
2018-06-03T09:22:58.581Z,22.42
2018-06-03T09:23:37.526Z,22.40
2018-06-03T09:24:37.450Z,22.35
2018-06-03T09:25:37.393Z,22.46
2018-06-03T09:26:37.327Z,22.52
2018-06-03T09:27:37.273Z,22.51
2018-06-03T09:28:58.176Z,22.54
2018-06-03T09:29:37.139Z,22.49
2018-06-03T09:30:37.057Z,22.42
2018-06-03T09:31:36.997Z,22.39
2018-06-03T09:32:36.925Z,22.36
2018-06-03T09:33:36.855Z,22.35
2018-06-03T09:34:57.774Z,22.37
2018-06-03T09:35:36.721Z,22.47
2018-06-03T09:36:36.660Z,22.37
2018-06-03T09:37:36.588Z,22.40
2018-06-03T09:38:36.525Z,22.54
2018-06-03T09:39:36.473Z,22.47
2018-06-03T09:40:57.381Z,22.35
2018-06-03T09:41:36.355Z,22.39
2018-06-03T09:42:36.253Z,22.27
2018-06-03T09:43:36.230Z,22.21
2018-06-03T09:44:36.149Z,22.40
2018-06-03T09:45:36.052Z,22.90
2018-06-03T09:46:56.970Z,23.33
2018-06-03T09:47:35.921Z,24.25
2018-06-03T09:48:35.857Z,24.78
2018-06-03T09:49:35.790Z,24.91
2018-06-03T09:50:35.723Z,25.54
2018-06-03T09:51:35.657Z,26.18
2018-06-03T09:52:56.579Z,27.00
2018-06-03T09:53:35.529Z,27.37
2018-06-03T09:54:35.484Z,27.92
2018-06-03T09:55:35.420Z,28.03
2018-06-03T09:56:35.358Z,28.09
2018-06-03T09:57:35.279Z,28.54
2018-06-03T09:58:56.198Z,28.22
2018-06-03T09:59:35.155Z,28.30
2018-06-03T10:00:35.099Z,28.22
2018-06-03T10:01:35.028Z,28.74
2018-06-03T10:02:34.992Z,29.23
2018-06-03T10:03:34.909Z,29.36
2018-06-03T10:04:55.846Z,29.82
2018-06-03T10:05:34.799Z,29.06
2018-06-03T10:06:34.731Z,29.28
2018-06-03T10:07:34.730Z,29.79
2018-06-03T10:08:34.624Z,30.10
2018-06-03T10:09:34.575Z,30.01
2018-06-03T10:10:55.508Z,29.23
2018-06-03T10:11:34.451Z,29.97
2018-06-03T10:12:34.397Z,30.13
2018-06-03T10:13:34.331Z,30.19
2018-06-03T10:14:34.330Z,30.23
2018-06-03T10:15:34.231Z,29.53
2018-06-03T10:16:55.162Z,29.82
2018-06-03T10:17:34.112Z,29.46
2018-06-03T10:18:34.061Z,29.70
2018-06-03T10:19:34.004Z,29.90
2018-06-03T10:20:33.952Z,30.39
2018-06-03T10:21:33.949Z,30.72
2018-06-03T10:22:54.841Z,30.94
2018-06-03T10:23:33.781Z,30.54
2018-06-03T10:24:33.733Z,30.45
2018-06-03T10:25:33.678Z,30.13
2018-06-03T10:26:33.622Z,29.58
2018-06-03T10:27:33.605Z,28.77
2018-06-03T10:28:54.511Z,29.28
2018-06-03T10:29:33.480Z,30.13
2018-06-03T10:30:33.402Z,29.63
2018-06-03T10:31:33.342Z,29.23
2018-06-03T10:32:33.288Z,28.80
2018-06-03T10:33:33.282Z,28.70
2018-06-03T10:34:54.174Z,27.97
2018-06-03T10:35:33.138Z,27.94
2018-06-03T10:36:33.068Z,27.70
2018-06-03T10:37:33.017Z,27.44
2018-06-03T10:38:32.968Z,26.72
2018-06-03T10:39:32.907Z,26.50
2018-06-03T10:40:53.843Z,26.40
2018-06-03T10:41:32.814Z,26.48
2018-06-03T10:42:32.729Z,26.45
2018-06-03T10:43:32.675Z,26.32
2018-06-03T10:44:32.628Z,25.97
2018-06-03T10:45:32.556Z,26.10
2018-06-03T10:46:53.492Z,25.98
2018-06-03T10:47:32.456Z,25.83
2018-06-03T10:48:32.373Z,25.52
2018-06-03T10:49:32.334Z,25.17
2018-06-03T10:50:32.268Z,25.00
2018-06-03T10:51:32.194Z,24.73
2018-06-03T10:52:53.122Z,24.28
2018-06-03T10:53:32.079Z,23.97
2018-06-03T10:54:32.122Z,24.10
2018-06-03T10:55:31.962Z,24.13
2018-06-03T10:56:31.893Z,24.30
2018-06-03T10:57:31.835Z,24.46
2018-06-03T10:58:52.756Z,24.80
2018-06-03T10:59:31.710Z,25.03
2018-06-03T11:00:31.662Z,25.09
2018-06-03T11:01:31.578Z,25.09
2018-06-03T11:02:31.521Z,25.15
2018-06-03T11:03:31.491Z,25.17
2018-06-03T11:04:52.377Z,25.24
2018-06-03T11:05:31.377Z,25.28
2018-06-03T11:06:31.261Z,25.52
2018-06-03T11:07:31.202Z,25.82
2018-06-03T11:08:31.154Z,26.09
2018-06-03T11:09:31.068Z,26.07
2018-06-03T11:10:51.998Z,25.92
2018-06-03T11:11:30.957Z,25.87
2018-06-03T11:12:30.877Z,25.87
2018-06-03T11:13:30.817Z,25.73
2018-06-03T11:14:30.841Z,25.87
2018-06-03T11:15:30.683Z,26.09
2018-06-03T11:16:51.624Z,26.37
2018-06-03T11:17:30.579Z,27.07
2018-06-03T11:18:30.490Z,27.66
2018-06-03T11:19:30.461Z,28.11
2018-06-03T11:20:30.370Z,27.79
2018-06-03T11:21:30.309Z,27.85
2018-06-03T11:22:51.228Z,28.19
2018-06-03T11:23:30.182Z,28.34
2018-06-03T11:24:30.126Z,28.00
2018-06-03T11:25:30.062Z,27.78
2018-06-03T11:26:29.996Z,27.31
2018-06-03T11:27:30.015Z,27.31
2018-06-03T11:28:50.875Z,27.25
2018-06-03T11:29:29.819Z,27.12
2018-06-03T11:30:29.756Z,27.06
2018-06-03T11:31:29.701Z,27.13
2018-06-03T11:32:29.628Z,26.84
2018-06-03T11:33:29.571Z,26.80
2018-06-03T11:34:50.537Z,26.72
2018-06-03T11:35:29.453Z,26.28
2018-06-03T11:36:29.387Z,26.20
2018-06-03T11:37:29.330Z,26.12
2018-06-03T11:38:29.270Z,26.15
2018-06-03T11:39:29.227Z,26.44
2018-06-03T11:40:50.131Z,26.87
2018-06-03T11:41:29.085Z,27.25
2018-06-03T11:42:29.028Z,27.43
2018-06-03T11:43:28.957Z,27.67
2018-06-03T11:44:28.899Z,27.50
2018-06-03T11:45:28.838Z,27.28
2018-06-03T11:46:49.765Z,27.02
2018-06-03T11:47:28.752Z,26.75
2018-06-03T11:48:28.647Z,26.50
2018-06-03T11:49:28.584Z,26.05
2018-06-03T11:50:28.531Z,25.90
2018-06-03T11:51:28.506Z,25.60
2018-06-03T11:52:49.391Z,25.42
2018-06-03T11:53:28.343Z,25.27
2018-06-03T11:54:28.279Z,25.30
2018-06-03T11:55:28.216Z,25.43
2018-06-03T11:56:28.158Z,25.35
2018-06-03T11:57:28.084Z,25.64
2018-06-03T11:58:49.034Z,25.83
2018-06-03T11:59:27.962Z,25.98
2018-06-03T12:00:27.931Z,26.18
2018-06-03T12:01:27.843Z,26.13
2018-06-03T12:02:27.784Z,26.20
2018-06-03T12:03:27.737Z,26.28
2018-06-03T12:04:48.640Z,26.30
2018-06-03T12:05:27.590Z,26.06
2018-06-03T12:06:27.519Z,26.15
2018-06-03T12:07:27.455Z,26.36
2018-06-03T12:08:27.399Z,26.29
2018-06-03T12:09:27.330Z,26.35
2018-06-03T12:10:48.268Z,26.12
2018-06-03T12:11:27.216Z,26.21
2018-06-03T12:12:27.135Z,26.20
2018-06-03T12:13:27.074Z,26.21
2018-06-03T12:14:27.019Z,26.37
2018-06-03T12:15:27.000Z,26.17
2018-06-03T12:16:47.872Z,26.17
2018-06-03T12:17:26.827Z,26.18
2018-06-03T12:18:26.758Z,26.09
2018-06-03T12:19:26.693Z,26.09
2018-06-03T12:20:26.638Z,26.17
2018-06-03T12:21:26.571Z,25.97
2018-06-03T12:22:47.492Z,25.99
2018-06-03T12:23:26.442Z,26.01
2018-06-03T12:24:26.376Z,25.99
2018-06-03T12:25:26.312Z,25.87
2018-06-03T12:26:26.267Z,25.99
2018-06-03T12:27:26.189Z,25.91
2018-06-03T12:28:47.111Z,25.77
2018-06-03T12:29:26.080Z,25.88
2018-06-03T12:30:26.004Z,25.76
2018-06-03T12:31:25.940Z,25.60
2018-06-03T12:32:25.866Z,25.58
2018-06-03T12:33:25.875Z,25.79
2018-06-03T12:34:46.725Z,25.79
2018-06-03T12:35:25.669Z,25.85
2018-06-03T12:36:25.617Z,25.87
2018-06-03T12:37:25.551Z,25.90
2018-06-03T12:38:25.500Z,25.87
2018-06-03T12:39:25.412Z,25.90
2018-06-03T12:40:46.346Z,25.61
2018-06-03T12:41:25.293Z,25.50
2018-06-03T12:42:25.221Z,25.54
2018-06-03T12:43:25.164Z,25.36
2018-06-03T12:44:25.108Z,25.25
2018-06-03T12:45:25.026Z,25.39
2018-06-03T12:46:45.945Z,25.30
2018-06-03T12:47:24.902Z,25.38
2018-06-03T12:48:24.831Z,25.45
2018-06-03T12:49:24.763Z,25.21
2018-06-03T12:50:24.717Z,25.32
2018-06-03T12:51:24.642Z,25.46